Oakland, MD

4:35 PM EDT on July 26, 2017 (GMT -0400)
Oakland

Weather History for K2G4 - February, 2013

Change the Weather History Date:

Wednesday, February 20, 2013

  Actual Average (KMGW) Record (KMGW)
Temperature  
Mean Temperature 16 °F -  
Max Temperature 19 °F 44 °F 70 °F (1994)
Min Temperature 12 °F 26 °F -7 °F (2015)
Degree Days  
Heating Degree Days 50    
Moisture  
Dew Point 11 °F    
Average Humidity 87    
Maximum Humidity 100    
Minimum Humidity 73    
Precipitation  
Precipitation 0.00 in - - ()
Sea Level Pressure  
Sea Level Pressure 29.90 in    
Wind  
Wind Speed 16 mph (West)    
Max Wind Speed 23 mph    
Max Gust Speed 37 mph    
Visibility 4 miles    
Events Fog    
Averages and records for this station are not official NWS values.
T = Trace of Precipitation, MM = Missing Value Source: NWS Daily Summary

Daily Weather History Graph

Daily Weather History Graph

Search for Another Location

Airport or City:

Trip Planner

Search our weather history database for the weather conditions in past years. The results will help you decide how hot, cold, wet, or windy it might be!

Date:

Astronomy

Feb. 20, 2013 Rise Set
Actual Time 7:02 AM EST 5:59 PM EST
Civil Twilight 6:35 AM EST 6:27 PM EST
Nautical Twilight 6:04 AM EST 6:58 PM EST
Astronomical Twilight 5:32 AM EST 7:29 PM EST
Moon 1:20 PM EST (2/20) 3:20 AM EST (2/20)
Length of Visible Light 11h 51m
Length of Day
10h 57m
Waxing Gibbous, 76% of the Moon is Illuminated
Feb 20
Waxing Gibbous
Feb 25
Full
Mar 4
Last Quarter
Mar 11
New
Mar 19
First Quarter

Hourly Weather History & Observations

Time (EST) Temp. Windchill Dew Point Humidity Pressure Visibility Wind Dir Wind Speed Gust Speed Precip Events Conditions
12:05 AM 19.4 °F 6.6 °F 19.4 °F 100% 29.80 in 2.5 mi West 12.7 mph 24.2 mph N/A   Overcast
12:25 AM 19.4 °F 3.6 °F 17.6 °F 93% 29.81 in 3.0 mi West 19.6 mph 27.6 mph N/A   Overcast
12:45 AM 19.4 °F 5.0 °F 15.8 °F 86% 29.81 in 7.0 mi West 16.1 mph 21.9 mph N/A   Overcast
1:05 AM 19.4 °F 7.2 °F 17.6 °F 93% 29.81 in 5.0 mi West 11.5 mph 24.2 mph N/A   Overcast
2:05 AM 17.6 °F 0.1 °F 14.0 °F 86% 29.82 in 2.5 mi West 23.0 mph 32.2 mph N/A   Overcast
2:25 AM 17.6 °F 0.5 °F 12.2 °F 79% 29.81 in 7.0 mi West 21.9 mph 32.2 mph N/A   Overcast
3:05 AM 17.6 °F 2.7 °F 14.0 °F 86% 29.81 in 2.0 mi West 16.1 mph 25.3 mph N/A   Overcast
3:25 AM 17.6 °F 4.3 °F 14.0 °F 86% 29.81 in 2.5 mi West 12.7 mph 23.0 mph N/A   Overcast
3:45 AM 15.8 °F -0.6 °F 14.0 °F 93% 29.81 in 2.5 mi West 18.4 mph 27.6 mph N/A   Overcast
4:05 AM 15.8 °F 1.4 °F 12.2 °F 86% 29.80 in 5.0 mi West 13.8 mph 25.3 mph N/A   Overcast
4:25 AM 15.8 °F 0.3 °F 14.0 °F 93% 29.81 in 3.0 mi West 16.1 mph 23.0 mph N/A   Overcast
4:45 AM 15.8 °F -0.2 °F 12.2 °F 86% 29.83 in 4.0 mi West 17.3 mph 28.8 mph N/A   Overcast
5:05 AM 14.0 °F -0.8 °F 10.4 °F 86% 29.83 in 5.0 mi West 13.8 mph 26.5 mph N/A   Overcast
5:25 AM 14.0 °F -2.0 °F 10.4 °F 86% 29.83 in 4.0 mi West 16.1 mph 27.6 mph N/A   Overcast
5:45 AM 14.0 °F -2.5 °F 10.4 °F 86% 29.83 in 4.0 mi West 17.3 mph 27.6 mph N/A   Overcast
6:05 AM 14.0 °F -2.5 °F 12.2 °F 93% 29.84 in 4.0 mi West 17.3 mph 31.1 mph N/A   Overcast
6:25 AM 14.0 °F -2.5 °F 12.2 °F 93% 29.84 in 4.0 mi West 17.3 mph 33.4 mph N/A   Overcast
7:05 AM 14.0 °F -4.7 °F 12.2 °F 93% 29.85 in 2.0 mi West 23.0 mph 33.4 mph N/A   Overcast
7:25 AM 14.0 °F -3.0 °F 12.2 °F 93% 29.85 in 1.8 mi West 18.4 mph 25.3 mph N/A   Overcast
7:45 AM 14.0 °F -1.4 °F 14.0 °F 100% 29.85 in 0.5 mi West 15.0 mph 25.3 mph N/A Fog Light Freezing Fog
8:05 AM 14.0 °F -3.4 °F 14.0 °F 100% 29.87 in 0.5 mi West 19.6 mph 29.9 mph N/A Fog Light Freezing Fog
8:45 AM 14.0 °F -2.5 °F 14.0 °F 100% 29.87 in 0.8 mi West 17.3 mph 33.4 mph N/A   Overcast
9:05 AM 14.0 °F -3.0 °F 14.0 °F 100% 29.87 in 0.8 mi West 18.4 mph 26.5 mph N/A   Overcast
9:25 AM 14.0 °F -2.0 °F 14.0 °F 100% 29.87 in 1.2 mi West 16.1 mph 26.5 mph N/A   Overcast
9:45 AM 15.8 °F 1.4 °F 12.2 °F 86% 29.87 in 1.5 mi West 13.8 mph 24.2 mph N/A   Overcast
10:05 AM 15.8 °F 0.3 °F 14.0 °F 93% 29.87 in 1.2 mi West 16.1 mph 26.5 mph N/A   Overcast
10:25 AM 15.8 °F 0.3 °F 12.2 °F 86% 29.88 in 1.2 mi West 16.1 mph 29.9 mph N/A   Overcast
10:45 AM 15.8 °F 0.3 °F 12.2 °F 86% 29.89 in 1.2 mi West 16.1 mph 27.6 mph N/A   Overcast
11:05 AM 17.6 °F 2.2 °F 12.2 °F 79% 29.88 in 1.2 mi West 17.3 mph 27.6 mph N/A   Overcast
11:25 AM 17.6 °F 0.5 °F 12.2 °F 79% 29.88 in 1.8 mi West 21.9 mph 33.4 mph N/A   Haze
12:05 PM 17.6 °F 0.5 °F 10.4 °F 73% 29.88 in 3.0 mi West 21.9 mph 33.4 mph N/A   Haze
12:25 PM 17.6 °F 0.1 °F 12.2 °F 79% 29.87 in 1.0 mi West 23.0 mph 34.5 mph N/A   Haze
12:45 PM 17.6 °F 0.5 °F 12.2 °F 79% 29.87 in 2.0 mi West 21.9 mph 36.8 mph N/A   Haze
1:05 PM 17.6 °F 0.9 °F 10.4 °F 73% 29.88 in 3.0 mi West 20.7 mph 35.7 mph N/A   Haze
1:25 PM 17.6 °F 1.7 °F 12.2 °F 79% 29.88 in 1.8 mi West 18.4 mph 28.8 mph N/A   Overcast
1:45 PM 15.8 °F -1.1 °F 14.0 °F 93% 29.88 in 1.0 mi West 19.6 mph 28.8 mph N/A   Overcast
2:05 PM 17.6 °F 2.7 °F 14.0 °F 86% 29.88 in 1.0 mi West 16.1 mph 26.5 mph N/A   Overcast
2:25 PM 15.8 °F -0.6 °F 14.0 °F 93% 29.89 in 1.0 mi West 18.4 mph 27.6 mph N/A   Overcast
3:05 PM 15.8 °F -0.6 °F 12.2 °F 86% 29.90 in 1.0 mi West 18.4 mph 33.4 mph N/A   Overcast
3:45 PM 14.0 °F -2.0 °F 12.2 °F 93% 29.93 in 1.0 mi West 16.1 mph 28.8 mph N/A   Overcast
4:05 PM 14.0 °F -1.4 °F 12.2 °F 93% 29.94 in 1.2 mi West 15.0 mph 26.5 mph N/A   Overcast
4:25 PM 14.0 °F -1.4 °F 12.2 °F 93% 29.94 in 1.8 mi West 15.0 mph 24.2 mph N/A   Overcast
4:45 PM 14.0 °F -1.4 °F 12.2 °F 93% 29.96 in 2.0 mi West 15.0 mph 21.9 mph N/A   Overcast
5:05 PM 14.0 °F -0.8 °F 10.4 °F 86% 29.96 in 3.0 mi West 13.8 mph 35.7 mph N/A   Overcast
5:25 PM 14.0 °F -3.4 °F 8.6 °F 79% 29.98 in 5.0 mi West 19.6 mph 28.8 mph N/A   Haze
6:05 PM 12.2 °F -3.7 °F 8.6 °F 85% 29.99 in 5.0 mi WNW 15.0 mph 25.3 mph N/A   Overcast
6:25 PM 12.2 °F -2.5 °F 8.6 °F 85% 30.00 in 7.0 mi West 12.7 mph 25.3 mph N/A   Overcast
7:05 PM 12.2 °F -3.1 °F 8.6 °F 85% 30.01 in 7.0 mi West 13.8 mph 20.7 mph N/A   Overcast
7:25 PM 12.2 °F -3.1 °F 6.8 °F 79% 30.00 in 10.0 mi West 13.8 mph 24.2 mph N/A   Scattered Clouds
7:45 PM 12.2 °F -3.1 °F 5.0 °F 73% 30.01 in 10.0 mi WNW 13.8 mph 19.6 mph N/A   Scattered Clouds
8:05 PM 12.2 °F -2.5 °F 5.0 °F 73% 30.00 in 10.0 mi West 12.7 mph 18.4 mph N/A   Overcast
8:25 PM 12.2 °F -3.1 °F 5.0 °F 73% 30.00 in 10.0 mi West 13.8 mph 20.7 mph N/A   Mostly Cloudy
9:05 PM 12.2 °F -4.8 °F 6.8 °F 79% 30.00 in 10.0 mi West 17.3 mph 27.6 mph N/A   Overcast
9:25 PM 12.2 °F -3.1 °F 6.8 °F 79% 30.01 in 10.0 mi West 13.8 mph 23.0 mph N/A   Overcast
9:45 PM 12.2 °F -2.5 °F 6.8 °F 79% 30.02 in 10.0 mi West 12.7 mph 20.7 mph N/A   Overcast
10:05 PM 12.2 °F -2.5 °F 6.8 °F 79% 30.02 in 10.0 mi West 12.7 mph 23.0 mph N/A   Overcast
10:25 PM 12.2 °F -3.1 °F 8.6 °F 85% 30.02 in 7.0 mi West 13.8 mph 23.0 mph N/A   Overcast
10:45 PM 12.2 °F -2.5 °F 8.6 °F 85% 30.02 in 7.0 mi West 12.7 mph 28.8 mph N/A   Overcast
11:05 PM 12.2 °F -1.8 °F 8.6 °F 85% 30.01 in 5.0 mi WNW 11.5 mph 19.6 mph N/A   Overcast
11:25 PM 12.2 °F -1.0 °F 8.6 °F 85% 30.00 in 5.0 mi West 10.4 mph 21.9 mph N/A   Overcast
11:45 PM 12.2 °F -2.5 °F 8.6 °F 85% 29.99 in 7.0 mi WNW 12.7 mph 19.6 mph N/A   Overcast